createdAt,value
2023-03-15T00:01:18.440Z,3.98
2023-03-15T00:03:45.945Z,2.09
2023-03-15T00:06:13.210Z,1.24
2023-03-15T00:08:39.853Z,1.09
2023-03-15T00:11:06.894Z,1.36
2023-03-15T00:13:33.843Z,1.49
2023-03-15T00:16:01.798Z,1.62
2023-03-15T00:18:28.940Z,1.57
2023-03-15T00:20:56.020Z,1.37
2023-03-15T00:23:22.752Z,1.59
2023-03-15T00:25:51.222Z,1.93
2023-03-15T00:28:18.712Z,1.97
2023-03-15T00:30:45.565Z,2.83
2023-03-15T00:33:13.865Z,4.15
2023-03-15T00:35:42.156Z,2.54
2023-03-15T00:38:09.421Z,3.75
2023-03-15T00:40:37.837Z,4.38
2023-03-15T00:43:04.457Z,4.92
2023-03-15T00:45:31.082Z,3.10
2023-03-15T00:47:57.714Z,1.44
2023-03-15T00:50:24.546Z,1.65
2023-03-15T00:52:50.994Z,1.69
2023-03-15T00:55:18.977Z,2.03
2023-03-15T00:57:46.353Z,1.98
2023-03-15T01:00:20.874Z,2.66
2023-03-15T01:02:47.650Z,2.55
2023-03-15T01:05:14.370Z,2.61
2023-03-15T01:07:40.934Z,2.66
2023-03-15T01:10:08.100Z,2.55
2023-03-15T01:12:35.258Z,3.47
2023-03-15T01:15:03.944Z,3.21
2023-03-15T01:17:30.507Z,3.06
2023-03-15T01:19:57.847Z,3.17
2023-03-15T01:22:24.491Z,4.04
2023-03-15T01:24:50.963Z,3.66
2023-03-15T01:27:17.625Z,2.41
2023-03-15T01:29:44.256Z,2.73
2023-03-15T01:32:10.754Z,2.28
2023-03-15T01:34:37.330Z,2.24
2023-03-15T01:37:03.972Z,2.16
2023-03-15T01:39:30.935Z,2.29
2023-03-15T01:41:57.399Z,2.36
2023-03-15T01:44:24.211Z,2.08
2023-03-15T01:46:51.111Z,2.19
2023-03-15T01:49:24.033Z,2.45
2023-03-15T01:51:58.690Z,2.43
2023-03-15T01:54:44.124Z,2.72
2023-03-15T01:57:17.656Z,2.72
2023-03-15T01:59:52.668Z,2.45
2023-03-15T02:02:22.675Z,2.50
2023-03-15T02:04:53.125Z,2.67
2023-03-15T02:07:23.307Z,2.41
2023-03-15T02:10:06.155Z,2.37
2023-03-15T02:12:36.364Z,2.65
2023-03-15T02:15:05.165Z,2.61
2023-03-15T02:17:36.893Z,2.44
2023-03-15T02:20:04.763Z,3.06
2023-03-15T02:22:43.687Z,2.33
2023-03-15T02:25:20.626Z,2.87
2023-03-15T02:27:47.764Z,2.51
2023-03-15T02:30:14.323Z,2.43
2023-03-15T02:32:41.341Z,2.92
2023-03-15T02:35:08.042Z,2.78
2023-03-15T02:37:34.598Z,3.03
2023-03-15T02:40:01.330Z,2.78
2023-03-15T02:42:28.608Z,2.54
2023-03-15T02:44:57.554Z,2.85
2023-03-15T02:47:27.905Z,2.74
2023-03-15T02:49:54.418Z,2.75
2023-03-15T02:52:21.472Z,2.78
2023-03-15T02:54:48.452Z,2.30
2023-03-15T02:57:16.521Z,2.53
2023-03-15T02:59:43.040Z,2.73
2023-03-15T03:02:11.778Z,2.87
2023-03-15T03:04:38.771Z,2.64
2023-03-15T03:07:05.272Z,2.10
2023-03-15T03:09:31.853Z,2.44
2023-03-15T03:11:58.345Z,2.33
2023-03-15T03:14:25.085Z,2.47
2023-03-15T03:16:52.183Z,2.35
2023-03-15T03:19:18.773Z,2.68
2023-03-15T03:21:45.212Z,2.57
2023-03-15T03:24:16.051Z,3.08
2023-03-15T03:26:46.239Z,2.72
2023-03-15T03:29:16.609Z,2.48
2023-03-15T03:31:44.291Z,2.77
2023-03-15T03:34:14.507Z,2.93
2023-03-15T03:36:41.916Z,3.28
2023-03-15T03:39:08.958Z,3.02
2023-03-15T03:41:35.549Z,2.80
2023-03-15T03:44:02.343Z,3.40
2023-03-15T03:46:29.065Z,3.17
2023-03-15T03:48:55.524Z,3.22
2023-03-15T03:51:21.992Z,3.35
2023-03-15T03:53:48.440Z,3.50
2023-03-15T03:56:14.900Z,3.45
2023-03-15T03:58:41.534Z,2.78
2023-03-15T04:01:08.280Z,2.84
2023-03-15T04:03:34.817Z,2.68
2023-03-15T04:06:01.297Z,3.05
2023-03-15T04:08:27.796Z,2.70
2023-03-15T04:10:55.472Z,3.11
2023-03-15T04:13:22.996Z,2.90
2023-03-15T04:15:50.089Z,3.46
2023-03-15T04:18:17.223Z,3.19
2023-03-15T04:20:46.995Z,2.78
2023-03-15T04:23:14.254Z,3.41
2023-03-15T04:25:40.812Z,3.31
2023-03-15T04:28:10.690Z,3.63
2023-03-15T04:30:37.391Z,3.65
2023-03-15T04:33:04.243Z,3.72
2023-03-15T04:35:32.385Z,4.27
2023-03-15T04:37:58.933Z,4.08
2023-03-15T04:40:25.641Z,4.02
2023-03-15T04:42:55.489Z,3.40
2023-03-15T04:45:26.006Z,3.70
2023-03-15T04:47:53.476Z,3.24
2023-03-15T04:50:20.888Z,2.73
2023-03-15T04:52:47.324Z,3.38
2023-03-15T04:55:14.181Z,4.46
2023-03-15T04:57:40.761Z,3.17
2023-03-15T05:00:08.383Z,2.40
2023-03-15T05:02:35.864Z,2.87
2023-03-15T05:05:02.374Z,3.37
2023-03-15T05:07:28.830Z,2.89
2023-03-15T05:09:55.334Z,3.28
2023-03-15T05:12:21.811Z,3.68
2023-03-15T05:14:48.415Z,3.07
2023-03-15T05:17:15.401Z,3.06
2023-03-15T05:19:42.591Z,3.12
2023-03-15T05:22:09.222Z,3.08
2023-03-15T05:24:35.702Z,2.63
2023-03-15T05:27:02.399Z,2.69
2023-03-15T05:29:28.989Z,2.26
2023-03-15T05:31:55.549Z,2.22
2023-03-15T05:34:24.224Z,2.14
2023-03-15T05:36:51.922Z,2.26
2023-03-15T05:39:19.171Z,2.12
2023-03-15T05:41:45.730Z,2.22
2023-03-15T05:44:12.233Z,2.09
2023-03-15T05:46:38.711Z,2.81
2023-03-15T05:49:05.447Z,2.42
2023-03-15T05:51:31.879Z,2.21
2023-03-15T05:53:58.321Z,2.07
2023-03-15T05:56:24.907Z,2.28
2023-03-15T05:58:51.579Z,2.44
2023-03-15T06:01:18.587Z,2.12
2023-03-15T06:03:45.201Z,2.56
2023-03-15T06:06:11.768Z,3.94
2023-03-15T06:08:38.293Z,2.35
2023-03-15T06:11:04.804Z,1.72
2023-03-15T06:13:31.386Z,1.67
2023-03-15T06:15:57.935Z,1.71
2023-03-15T06:18:24.535Z,2.06
2023-03-15T06:20:51.111Z,2.30
2023-03-15T06:23:17.641Z,2.14
2023-03-15T06:25:45.315Z,2.22
2023-03-15T06:28:11.939Z,1.98
2023-03-15T06:30:38.625Z,2.29
2023-03-15T06:33:05.351Z,2.31
2023-03-15T06:35:31.939Z,2.34
2023-03-15T06:37:58.468Z,2.50
2023-03-15T06:40:25.089Z,2.42
2023-03-15T06:42:51.625Z,2.52
2023-03-15T06:45:18.285Z,2.60
2023-03-15T06:47:44.819Z,2.74
2023-03-15T06:50:11.843Z,2.90
2023-03-15T06:52:38.863Z,3.10
2023-03-15T06:55:05.848Z,2.51
2023-03-15T06:57:32.476Z,2.55
2023-03-15T07:00:00.095Z,3.08
2023-03-15T07:02:26.941Z,2.64
2023-03-15T07:04:53.552Z,2.42
2023-03-15T07:07:20.567Z,2.64
2023-03-15T07:09:47.333Z,2.21
2023-03-15T07:12:13.988Z,2.53
2023-03-15T07:14:40.576Z,2.46
2023-03-15T07:17:07.125Z,2.70
2023-03-15T07:19:34.606Z,2.67
2023-03-15T07:22:02.493Z,2.50
2023-03-15T07:24:29.006Z,2.39
2023-03-15T07:26:56.654Z,2.43
2023-03-15T07:29:26.130Z,2.33
2023-03-15T07:31:52.909Z,2.39
2023-03-15T07:34:19.659Z,2.10
2023-03-15T07:36:46.242Z,2.28
2023-03-15T07:39:12.979Z,2.37
2023-03-15T07:41:39.565Z,2.27
2023-03-15T07:44:06.285Z,2.09
2023-03-15T07:46:33.702Z,2.17
2023-03-15T07:49:00.557Z,2.15
2023-03-15T07:51:27.191Z,2.67
2023-03-15T07:53:53.936Z,2.77
2023-03-15T07:56:20.575Z,2.51
2023-03-15T07:58:47.023Z,2.38
2023-03-15T08:01:13.690Z,2.65
2023-03-15T08:03:40.217Z,3.14
2023-03-15T08:06:07.155Z,2.83
2023-03-15T08:08:33.959Z,2.81
2023-03-15T08:11:00.572Z,2.80
2023-03-15T08:13:27.150Z,2.96
2023-03-15T08:15:53.850Z,2.66
2023-03-15T08:18:20.612Z,3.40
2023-03-15T08:20:47.250Z,3.08
2023-03-15T08:23:16.684Z,3.51
2023-03-15T08:25:44.348Z,3.55
2023-03-15T08:28:11.433Z,3.75
2023-03-15T08:30:38.122Z,3.56
2023-03-15T08:33:05.168Z,3.52
2023-03-15T08:35:33.069Z,4.05
2023-03-15T08:38:00.186Z,3.59
2023-03-15T08:40:26.815Z,3.74
2023-03-15T08:42:54.076Z,3.73
2023-03-15T08:45:21.634Z,3.47
2023-03-15T08:47:48.258Z,3.61
2023-03-15T08:50:16.140Z,3.68
2023-03-15T08:52:44.107Z,3.42
2023-03-15T08:55:14.391Z,3.39
2023-03-15T08:57:41.640Z,3.38
2023-03-15T09:00:09.508Z,3.61
2023-03-15T09:02:36.820Z,3.56
2023-03-15T09:05:06.978Z,3.78
2023-03-15T09:07:34.584Z,4.38
2023-03-15T09:10:02.964Z,3.60
2023-03-15T09:12:31.551Z,3.72
2023-03-15T09:14:58.187Z,3.25
2023-03-15T09:17:24.981Z,4.37
2023-03-15T09:19:52.596Z,4.69
2023-03-15T09:22:29.257Z,3.94
2023-03-15T09:25:05.219Z,3.87
2023-03-15T09:27:32.249Z,3.39
2023-03-15T09:29:58.968Z,3.40
2023-03-15T09:32:25.514Z,3.69
2023-03-15T09:34:52.345Z,4.22
2023-03-15T09:37:20.728Z,3.89
2023-03-15T09:39:47.474Z,3.89
2023-03-15T09:42:20.264Z,3.51
2023-03-15T09:44:59.503Z,3.65
2023-03-15T09:47:33.449Z,3.37
2023-03-15T09:49:59.930Z,3.39
2023-03-15T09:52:26.375Z,3.09
2023-03-15T09:55:31.487Z,2.99
2023-03-15T09:58:05.397Z,3.07
2023-03-15T10:00:41.460Z,2.88
2023-03-15T10:03:15.994Z,2.88
2023-03-15T10:05:46.014Z,2.74
2023-03-15T10:08:14.503Z,3.17
2023-03-15T10:10:49.514Z,2.89
2023-03-15T10:13:27.058Z,2.89
2023-03-15T10:16:02.845Z,3.34
2023-03-15T10:18:38.634Z,3.17
2023-03-15T10:21:11.884Z,2.58
2023-03-15T10:23:49.797Z,3.36
2023-03-15T10:26:20.535Z,3.40
2023-03-15T10:28:48.999Z,3.08
2023-03-15T10:31:22.881Z,2.94
2023-03-15T10:33:59.538Z,2.67
2023-03-15T10:36:26.276Z,2.53
2023-03-15T10:38:53.122Z,2.82
2023-03-15T10:41:29.171Z,2.77
2023-03-15T10:43:58.142Z,2.28
2023-03-15T10:46:24.828Z,2.58
2023-03-15T10:48:59.291Z,2.87
2023-03-15T10:51:30.422Z,2.78
2023-03-15T10:53:59.909Z,2.62
2023-03-15T10:56:28.730Z,2.93
2023-03-15T10:59:11.474Z,3.15
2023-03-15T11:01:38.959Z,3.05
2023-03-15T11:04:22.977Z,3.46
2023-03-15T11:07:10.688Z,3.48
2023-03-15T11:09:42.160Z,3.28
2023-03-15T11:12:10.587Z,3.22
2023-03-15T11:14:39.485Z,3.45
2023-03-15T11:17:15.232Z,3.26
2023-03-15T11:19:54.454Z,3.06
2023-03-15T11:22:21.097Z,2.81
2023-03-15T11:24:47.804Z,2.50
2023-03-15T11:27:17.334Z,2.64
2023-03-15T11:29:48.283Z,2.85
2023-03-15T11:32:24.245Z,2.72
2023-03-15T11:34:53.965Z,2.68
2023-03-15T11:37:49.866Z,2.58
2023-03-15T11:40:20.694Z,2.56
2023-03-15T11:43:02.326Z,2.47
2023-03-15T11:45:36.805Z,2.61
2023-03-15T11:48:09.225Z,2.44
2023-03-15T11:50:35.813Z,2.34
2023-03-15T11:53:04.002Z,2.59
2023-03-15T11:55:32.796Z,2.87
2023-03-15T11:58:19.291Z,2.77
2023-03-15T12:00:51.241Z,2.96
2023-03-15T12:03:34.814Z,2.85
2023-03-15T12:06:10.328Z,2.53
2023-03-15T12:08:39.622Z,2.97
2023-03-15T12:11:21.314Z,2.75
2023-03-15T12:13:51.344Z,2.76
2023-03-15T12:16:21.178Z,2.53
2023-03-15T12:18:48.072Z,2.64
2023-03-15T12:21:32.558Z,2.53
2023-03-15T12:24:03.928Z,3.56
2023-03-15T12:26:39.482Z,2.33
2023-03-15T12:29:36.187Z,2.15
2023-03-15T12:32:02.641Z,1.89
2023-03-15T12:34:53.037Z,2.06
2023-03-15T12:37:39.510Z,2.47
2023-03-15T12:40:15.249Z,2.69
2023-03-15T12:42:41.783Z,2.90
2023-03-15T12:45:20.537Z,2.36
2023-03-15T12:47:49.913Z,2.28
2023-03-15T12:50:35.279Z,4.53
2023-03-15T12:53:03.057Z,2.26
2023-03-15T12:55:32.962Z,2.30
2023-03-15T12:58:00.851Z,2.26
2023-03-15T13:00:30.471Z,3.67
2023-03-15T13:03:06.488Z,2.44
2023-03-15T13:05:34.370Z,2.59
2023-03-15T13:08:21.191Z,5.43
2023-03-15T13:10:58.171Z,2.62
2023-03-15T13:13:33.844Z,2.62
2023-03-15T13:16:09.636Z,2.58
2023-03-15T13:18:44.842Z,2.70
2023-03-15T13:21:14.222Z,2.59
2023-03-15T13:23:44.623Z,2.59
2023-03-15T13:26:21.826Z,2.59
2023-03-15T13:28:52.271Z,2.43
2023-03-15T13:31:18.887Z,3.15
2023-03-15T13:33:57.686Z,3.28
2023-03-15T13:36:38.574Z,3.06
2023-03-15T13:39:10.673Z,3.00
2023-03-15T13:41:38.805Z,2.79
2023-03-15T13:44:15.168Z,2.78
2023-03-15T13:46:41.762Z,2.79
2023-03-15T13:49:11.597Z,2.96
2023-03-15T13:51:39.628Z,2.55
2023-03-15T13:54:09.002Z,3.32
2023-03-15T13:56:48.754Z,2.80
2023-03-15T13:59:17.908Z,2.88
2023-03-15T14:01:44.836Z,2.38
2023-03-15T14:04:18.302Z,2.62
2023-03-15T14:06:48.270Z,2.47
2023-03-15T14:09:21.591Z,2.59
2023-03-15T14:12:01.203Z,2.15
2023-03-15T14:14:29.600Z,2.47
2023-03-15T14:17:05.460Z,2.31
2023-03-15T14:19:34.599Z,2.19
2023-03-15T14:22:03.220Z,2.33
2023-03-15T14:24:40.316Z,2.25
2023-03-15T14:27:09.730Z,2.55
2023-03-15T14:29:37.986Z,2.36
2023-03-15T14:32:09.246Z,2.11
2023-03-15T14:34:46.031Z,1.92
2023-03-15T14:37:31.270Z,2.00
2023-03-15T14:40:15.074Z,2.25
2023-03-15T14:42:42.403Z,1.97
2023-03-15T14:45:09.618Z,2.08
2023-03-15T14:47:53.279Z,2.20
2023-03-15T14:50:23.764Z,1.86
2023-03-15T14:52:51.505Z,2.04
2023-03-15T14:55:23.709Z,2.15
2023-03-15T14:57:50.270Z,1.92
2023-03-15T15:00:18.313Z,2.35
2023-03-15T15:02:46.174Z,2.23
2023-03-15T15:05:22.031Z,1.87
2023-03-15T15:07:48.972Z,2.39
2023-03-15T15:10:15.884Z,2.37
2023-03-15T15:12:43.236Z,2.17
2023-03-15T15:15:15.346Z,2.13
2023-03-15T15:17:42.193Z,2.25
2023-03-15T15:20:11.726Z,2.33
2023-03-15T15:22:45.413Z,2.06
2023-03-15T15:25:16.653Z,2.09
2023-03-15T15:27:43.906Z,2.28
2023-03-15T15:30:12.305Z,1.92
2023-03-15T15:32:45.083Z,1.82
2023-03-15T15:35:13.971Z,1.82
2023-03-15T15:37:41.020Z,1.89
2023-03-15T15:40:11.965Z,1.70
2023-03-15T15:42:38.456Z,1.73
2023-03-15T15:45:09.092Z,1.70
2023-03-15T15:47:35.553Z,1.68
2023-03-15T15:50:02.136Z,1.74
2023-03-15T15:52:29.151Z,1.79
2023-03-15T15:54:55.680Z,1.86
2023-03-15T15:57:26.593Z,1.94
2023-03-15T15:59:53.608Z,1.69
2023-03-15T16:02:23.181Z,1.72
2023-03-15T16:04:50.579Z,1.75
2023-03-15T16:07:17.829Z,1.86
2023-03-15T16:09:46.102Z,1.66
2023-03-15T16:12:14.476Z,1.67
2023-03-15T16:14:41.761Z,1.60
2023-03-15T16:17:17.270Z,1.45
2023-03-15T16:19:43.941Z,1.69
2023-03-15T16:22:10.798Z,1.41
2023-03-15T16:24:39.243Z,1.40
2023-03-15T16:27:08.082Z,1.31
2023-03-15T16:29:40.305Z,1.52
2023-03-15T16:32:16.813Z,1.65
2023-03-15T16:34:48.415Z,1.56
2023-03-15T16:37:17.306Z,1.55
2023-03-15T16:39:47.136Z,1.41
2023-03-15T16:42:14.777Z,1.56
2023-03-15T16:44:41.968Z,1.64
2023-03-15T16:47:09.132Z,1.58
2023-03-15T16:49:35.696Z,1.61
2023-03-15T16:52:04.509Z,1.67
2023-03-15T16:54:41.063Z,1.83
2023-03-15T16:57:17.128Z,1.62
2023-03-15T16:59:43.665Z,1.71
2023-03-15T17:02:25.019Z,1.65
2023-03-15T17:04:54.957Z,2.11
2023-03-15T17:07:30.307Z,1.89
2023-03-15T17:09:57.881Z,2.16
2023-03-15T17:12:26.274Z,2.14
2023-03-15T17:14:55.277Z,2.06
2023-03-15T17:17:21.974Z,1.91
2023-03-15T17:19:48.930Z,1.93
2023-03-15T17:22:17.235Z,2.03
2023-03-15T17:24:44.830Z,2.00
2023-03-15T17:27:34.902Z,1.89
2023-03-15T17:30:01.953Z,2.21
2023-03-15T17:32:29.506Z,2.07
2023-03-15T17:34:59.058Z,1.78
2023-03-15T17:37:33.750Z,1.84
2023-03-15T17:40:01.265Z,1.74
2023-03-15T17:42:27.912Z,2.17
2023-03-15T17:44:54.434Z,1.94
2023-03-15T17:47:21.497Z,2.43
2023-03-15T17:49:48.291Z,2.20
2023-03-15T17:52:18.451Z,2.37
2023-03-15T17:54:46.324Z,2.52
2023-03-15T17:57:13.296Z,2.59
2023-03-15T17:59:40.113Z,2.41
2023-03-15T18:02:15.404Z,2.55
2023-03-15T18:04:42.434Z,2.79
2023-03-15T18:07:09.250Z,2.63
2023-03-15T18:09:36.066Z,3.26
2023-03-15T18:12:03.004Z,3.34
2023-03-15T18:14:31.105Z,3.75
2023-03-15T18:16:59.547Z,4.37
2023-03-15T18:19:27.368Z,5.07
2023-03-15T18:21:54.028Z,4.71
2023-03-15T18:24:21.008Z,4.56
2023-03-15T18:26:48.504Z,4.90
2023-03-15T18:29:15.224Z,4.91
2023-03-15T18:31:43.446Z,5.22
2023-03-15T18:34:15.707Z,4.80
2023-03-15T18:36:42.457Z,4.11
2023-03-15T18:39:09.694Z,4.36
2023-03-15T18:41:36.341Z,4.42
2023-03-15T18:44:02.940Z,4.20
2023-03-15T18:46:31.176Z,3.95
2023-03-15T18:48:59.133Z,4.51
2023-03-15T18:51:28.122Z,3.85
2023-03-15T18:53:55.603Z,3.77
2023-03-15T18:56:26.928Z,4.58
2023-03-15T18:58:54.754Z,4.29
2023-03-15T19:01:23.258Z,3.76
2023-03-15T19:03:50.791Z,4.07
2023-03-15T19:06:18.501Z,4.62
2023-03-15T19:08:45.456Z,4.28
2023-03-15T19:11:12.091Z,4.44
2023-03-15T19:13:38.907Z,4.37
2023-03-15T19:16:05.726Z,4.55
2023-03-15T19:18:32.861Z,4.33
2023-03-15T19:20:59.866Z,4.50
2023-03-15T19:23:27.425Z,4.46
2023-03-15T19:25:54.036Z,4.98
2023-03-15T19:28:20.667Z,4.61
2023-03-15T19:30:47.295Z,5.13
2023-03-15T19:33:13.857Z,5.79
2023-03-15T19:35:40.557Z,5.70
2023-03-15T19:38:07.370Z,5.20
2023-03-15T19:40:34.020Z,5.19
2023-03-15T19:43:00.763Z,4.50
2023-03-15T19:45:27.921Z,4.56
2023-03-15T19:47:54.603Z,5.00
2023-03-15T19:50:21.544Z,5.53
2023-03-15T19:52:48.404Z,6.03
2023-03-15T19:55:16.450Z,6.23
2023-03-15T19:57:44.669Z,5.84
2023-03-15T20:00:13.320Z,6.27
2023-03-15T20:02:41.686Z,6.33
2023-03-15T20:05:09.397Z,6.83
2023-03-15T20:07:36.628Z,7.22
2023-03-15T20:10:04.399Z,7.27
2023-03-15T20:12:32.332Z,7.09
2023-03-15T20:14:58.898Z,7.24
2023-03-15T20:17:26.956Z,7.75
2023-03-15T20:19:53.473Z,8.86
2023-03-15T20:22:20.073Z,9.21
2023-03-15T20:24:46.991Z,9.73
2023-03-15T20:27:13.646Z,9.14
2023-03-15T20:29:40.157Z,9.14
2023-03-15T20:32:06.930Z,8.66
2023-03-15T20:34:33.495Z,8.21
2023-03-15T20:37:00.062Z,8.63
2023-03-15T20:39:26.698Z,8.06
2023-03-15T20:41:53.458Z,7.68
2023-03-15T20:44:20.243Z,7.39
2023-03-15T20:46:47.004Z,7.78
2023-03-15T20:49:14.862Z,7.46
2023-03-15T20:51:41.394Z,7.76
2023-03-15T20:54:07.976Z,7.58
2023-03-15T20:56:34.860Z,7.40
2023-03-15T20:59:01.890Z,7.76
2023-03-15T21:01:28.919Z,7.78
2023-03-15T21:03:58.685Z,8.27
2023-03-15T21:06:25.673Z,7.63
2023-03-15T21:08:52.515Z,7.65
2023-03-15T21:11:21.238Z,8.58
2023-03-15T21:13:48.265Z,7.60
2023-03-15T21:16:18.518Z,7.84
2023-03-15T21:18:51.899Z,7.63
2023-03-15T21:21:19.727Z,7.58
2023-03-15T21:23:48.426Z,7.81
2023-03-15T21:26:15.783Z,7.92
2023-03-15T21:28:43.391Z,8.22
2023-03-15T21:31:10.370Z,8.22
2023-03-15T21:33:37.630Z,8.18
2023-03-15T21:36:04.656Z,8.23
2023-03-15T21:38:32.720Z,8.50
2023-03-15T21:41:00.071Z,8.13
2023-03-15T21:43:31.765Z,7.97
2023-03-15T21:46:07.316Z,8.16
2023-03-15T21:48:34.675Z,8.53
2023-03-15T21:51:02.715Z,8.76
2023-03-15T21:53:30.404Z,8.50
2023-03-15T21:55:57.877Z,8.99
2023-03-15T21:58:28.158Z,8.31
2023-03-15T22:01:04.511Z,8.38
2023-03-15T22:03:32.318Z,8.29
2023-03-15T22:05:58.892Z,8.32
2023-03-15T22:08:25.587Z,8.10
2023-03-15T22:10:56.656Z,7.81
2023-03-15T22:13:23.185Z,8.05
2023-03-15T22:15:50.215Z,8.60
2023-03-15T22:18:16.853Z,7.87
2023-03-15T22:20:43.383Z,8.03
2023-03-15T22:23:10.078Z,7.43
2023-03-15T22:25:38.611Z,7.72
2023-03-15T22:28:05.246Z,7.71
2023-03-15T22:30:32.037Z,7.97
2023-03-15T22:32:59.333Z,7.42
2023-03-15T22:35:26.155Z,7.26
2023-03-15T22:37:56.775Z,7.06
2023-03-15T22:40:25.075Z,7.99
2023-03-15T22:42:52.749Z,7.66
2023-03-15T22:45:22.430Z,8.09
2023-03-15T22:47:49.542Z,8.04
2023-03-15T22:50:16.360Z,7.55
2023-03-15T22:52:43.113Z,8.23
2023-03-15T22:55:10.670Z,8.46
2023-03-15T22:57:37.700Z,7.36
2023-03-15T23:00:13.593Z,7.71
2023-03-15T23:02:41.436Z,8.12
2023-03-15T23:05:08.172Z,8.00
2023-03-15T23:07:35.105Z,8.00
2023-03-15T23:10:01.712Z,8.05
2023-03-15T23:12:35.952Z,7.90
2023-03-15T23:15:04.721Z,7.87
2023-03-15T23:17:31.740Z,7.83
2023-03-15T23:19:58.432Z,7.73
2023-03-15T23:22:24.956Z,7.65
2023-03-15T23:24:51.591Z,8.15
2023-03-15T23:27:18.153Z,7.91
2023-03-15T23:29:54.129Z,7.62
2023-03-15T23:32:21.435Z,7.78
2023-03-15T23:34:48.101Z,7.93
2023-03-15T23:37:15.153Z,7.52
2023-03-15T23:39:42.540Z,7.89
2023-03-15T23:42:09.433Z,7.79
2023-03-15T23:44:35.960Z,7.74
2023-03-15T23:47:06.532Z,7.70
2023-03-15T23:49:33.893Z,7.83
2023-03-15T23:52:05.452Z,7.33
2023-03-15T23:54:39.349Z,7.55
2023-03-15T23:57:07.438Z,8.06
2023-03-15T23:59:36.074Z,7.66
